Abisko, Sweden

8:58 PM CET on December 25, 2014 (GMT +0100)
Abisko Utsikten | Change Station
CLOSE
Current Station
Personal Weather Station
Location: Abisko, KIRUNA
Elevation: 1200 ft
Nearby Weather Stations

Elev 1200 ft 68.35 °N, 18.83 °E | Updated 50 seconds ago

Scattered Clouds
Scattered Clouds
19.5 °F
Feels Like 20 °F
N
3.0
Wind Variable Wind from WNW
Gusts 8.0 mph

Today
High -- | Low -- °F
--% Chance of Precip.
Yesterday
High -- | Low -- °F
Precip. -- in
11:12 AM 12:17 PM
Waxing Crescent, 18% visible
Pressure 29.53 in
Visibility 6.2 miles
Clouds Few 1000 ft
Scattered Clouds 4000 ft
Windchill 20 °F
Dew Point 13 °F
Humidity 74%
Rainfall 0.00 in
Snow Depth Not available.
UV 0 out of 12
Pollen Not available.
Air Quality Not available.
Flu Activity Not available.
METAR ENDU 251950Z 23003KT 180V280 9999 VCSH FEW010 SCT040 M05/M07 Q1000

More Conditions Fewer Conditions

Pressure 29.53 in
Visibility 6.2 miles
Clouds Few 1000 ft
Scattered Clouds 4000 ft
Windchill 20 °F
Dew Point 13 °F
Humidity 74%
Rainfall 0.00 in
Snow Depth Not available.
UV 0 out of 12
Pollen Not available.
Air Quality Not available.
Flu Activity Not available.
METAR ENDU 251950Z 23003KT 180V280 9999 VCSH FEW010 SCT040 M05/M07 Q1000

More Conditions Fewer Conditions

10-Day Weather Forecast

Almanac

Astronomy

Dec. 25, 2014 Rise Set
Actual Time
Civil Twilight
Nautical Twilight
Astronomical Twilight
Moon
Length of Visible Light
Length of Day
Tomorrow will be .
, % of the Moon is Illuminated

Today's Extremes

Country Highs Country Lows

Community

WunderPhotos

Upload Photos

1,780,376 photos uploaded!

WunderBlogs® & News

Nearby

Air Quality

  Air Quality AQ Index Pollutant
Not available.

Snow Depth

Station Depth Elevation

Earthquake Activity

City Distance Mag. Time & Date
Minimum magnitude displayed is 2.5.

Coastal Water Temperatures

Place Temperature

Nearby Weather Stations